This is the latest recevied weather packets stored in our database for station/object KC3QLX. If no packets are shown the sender has not sent any weather packets the latest 10 day(s).
| Time | Temp. | Humidity | Pressure | Rain* | Wind** | Luminosity | Snow |
|---|---|---|---|---|---|---|---|
| 1777668093 | 16.11° C | 46% | 1010.1 hPa | 0 mm | - | 176 W/m² | - |
| 1777667790 | 16.67° C | 44% | 1010.1 hPa | 0 mm | - | 185 W/m² | - |
| 1777667487 | 17.22° C | 45% | 1009.9 hPa | 0 mm | - | 233 W/m² | - |
| 1777667184 | 17.22° C | 46% | 1010.2 hPa | 0 mm | - | 381 W/m² | - |
| 1777666881 | 15.56° C | 51% | 1010.3 hPa | 0 mm | - | 414 W/m² | - |
| 1777666578 | 16.11° C | 45% | 1010.4 hPa | 0 mm | - | 148 W/m² | - |
| 1777666274 | 17.22° C | 47% | 1010.3 hPa | 0 mm | - | 167 W/m² | - |
| 1777665972 | 17.22° C | 45% | 1010.3 hPa | 0 mm | - | 194 W/m² | - |
| 1777665669 | 17.78° C | 44% | 1010.5 hPa | 0 mm | - | 649 W/m² | - |
| 1777665367 | 16.67° C | 46% | 1010.5 hPa | 0 mm | - | 692 W/m² | - |
| 1777665062 | 16.67° C | 47% | 1010.4 hPa | 0 mm | - | 642 W/m² | - |
| 1777664758 | 16.67° C | 45% | 1010.7 hPa | 0 mm | - | 311 W/m² | - |
| 1777664453 | 17.22° C | 45% | 1010.6 hPa | 0 mm | - | 229 W/m² | - |
| 1777664151 | 17.22° C | 45% | 1010.4 hPa | 0 mm | - | 194 W/m² | - |
| 1777663850 | 17.22° C | 43% | 1010.6 hPa | 0 mm | - | 683 W/m² | - |
| 1777663546 | 17.22° C | 44% | 1010.6 hPa | 0 mm | - | 254 W/m² | - |
| 1777663244 | 18.33° C | 41% | 1010.7 hPa | 0 mm | - | 240 W/m² | - |
| 1777662941 | 17.78° C | 46% | 1010.8 hPa | 0 mm | - | 632 W/m² | - |
| 1777662638 | 18.33° C | 42% | 1010.6 hPa | 0 mm | - | 658 W/m² | - |
| 1777662333 | 17.22° C | 42% | 1010.8 hPa | 0 mm | - | 659 W/m² | - |
| 1777662029 | 17.78° C | 41% | 1010.7 hPa | 0 mm | - | 242 W/m² | - |
| 1777661725 | 16.67° C | 47% | 1010.9 hPa | 0 mm | - | 622 W/m² | - |
| 1777661422 | 16.67° C | 44% | 1010.9 hPa | 0 mm | - | 575 W/m² | - |
| 1777661118 | 15.56° C | 45% | 1011 hPa | 0 mm | - | 622 W/m² | - |
| 1777660818 | 15.56° C | 47% | 1011.1 hPa | 0 mm | - | 189 W/m² | - |
* Rain latest hour (hover to see other rain measurements)
** Current wind speed in m/s (hover to see current wind gust speed)